Time;durP1;ratioP1;P1;durP2;ratioP2;P2;SDS_P1;SDS_P2;PMS_P1;PMS_P2;Temp;Humidity;BMP_temperature;BMP_pressure;BME280_temperature;BME280_humidity;BME280_pressure;Samples;Min_cycle;Max_cycle;Signal;HPM_P1;HPM_P2
2024/01/31 00:01:57;;;;;;;7.03;0.50;;;;;;;;;;4957671;28;20070;-74
2024/01/31 00:04:23;;;;;;;4.70;0.60;;;;;;;;;;4975094;28;20054;-73
2024/01/31 00:06:52;;;;;;;8.43;0.40;;;;;;;;;;4957757;28;20094;-73
2024/01/31 00:09:18;;;;;;;3.53;0.40;;;;;;;;;;4941814;28;20466;-73
2024/01/31 00:11:45;;;;;;;6.70;0.60;;;;;;;;;;4942194;28;20058;-74
2024/01/31 00:14:13;;;;;;;11.25;0.40;;;;;;;;;;4957467;28;20121;-75
2024/01/31 00:16:39;;;;;;;4.53;0.40;;;;;;;;;;4958432;28;20054;-73
2024/01/31 00:19:05;;;;;;;6.10;0.38;;;;;;;;;;4957769;28;20049;-73
2024/01/31 00:21:31;;;;;;;7.73;0.73;;;;;;;;;;4957004;28;20061;-74
2024/01/31 00:23:58;;;;;;;6.60;0.20;;;;;;;;;;4958166;28;20302;-74
2024/01/31 00:26:24;;;;;;;4.28;0.30;;;;;;;;;;4957792;28;20530;-75
2024/01/31 00:28:50;;;;;;;5.90;0.30;;;;;;;;;;4957404;28;20046;-73
2024/01/31 00:31:17;;;;;;;5.40;0.45;;;;;;;;;;4976512;28;20491;-74
2024/01/31 00:33:44;;;;;;;4.20;0.40;;;;;;;;;;4961190;28;20094;-74
2024/01/31 00:36:11;;;;;;;3.88;0.50;;;;;;;;;;4961478;28;20057;-76
2024/01/31 00:38:37;;;;;;;6.82;0.40;;;;;;;;;;4961514;28;20054;-74
2024/01/31 00:41:06;;;;;;;2.47;0.50;;;;;;;;;;4961225;28;20093;-73
2024/01/31 00:43:32;;;;;;;7.85;0.70;;;;;;;;;;4961466;28;20050;-74
2024/01/31 00:45:58;;;;;;;4.13;0.60;;;;;;;;;;4961849;28;20118;-75
2024/01/31 00:48:24;;;;;;;7.47;0.70;;;;;;;;;;4962142;28;20057;-73
2024/01/31 00:50:50;;;;;;;6.68;0.55;;;;;;;;;;4961203;28;20043;-73
2024/01/31 00:53:16;;;;;;;6.25;0.80;;;;;;;;;;4978232;28;20506;-74
2024/01/31 00:55:42;;;;;;;3.70;0.50;;;;;;;;;;4979147;28;20086;-75
2024/01/31 00:58:09;;;;;;;6.53;0.52;;;;;;;;;;4962892;28;20070;-73
2024/01/31 01:00:35;;;;;;;7.25;0.65;;;;;;;;;;4961426;28;20050;-73
2024/01/31 01:03:01;;;;;;;6.03;0.32;;;;;;;;;;4978567;28;20125;-74
2024/01/31 01:05:27;;;;;;;7.75;0.60;;;;;;;;;;4978561;28;20446;-73
2024/01/31 01:07:53;;;;;;;2.92;0.30;;;;;;;;;;4928832;28;20046;-74
2024/01/31 01:10:19;;;;;;;5.88;0.73;;;;;;;;;;4960701;28;20053;-75
2024/01/31 01:12:46;;;;;;;5.80;0.50;;;;;;;;;;4961814;28;20046;-74
2024/01/31 01:15:12;;;;;;;5.22;0.40;;;;;;;;;;4978140;28;20078;-75
2024/01/31 01:17:38;;;;;;;2.92;0.30;;;;;;;;;;4961147;28;20106;-75
2024/01/31 01:20:06;;;;;;;3.23;0.23;;;;;;;;;;4978547;28;20050;-74
2024/01/31 01:22:32;;;;;;;4.90;0.77;;;;;;;;;;4961835;28;20121;-72
2024/01/31 01:24:58;;;;;;;2.05;0.20;;;;;;;;;;4980517;28;20055;-73
2024/01/31 01:27:24;;;;;;;4.22;0.22;;;;;;;;;;4981090;28;20050;-73
2024/01/31 01:29:50;;;;;;;1.67;0.20;;;;;;;;;;4963246;28;20047;-74
2024/01/31 01:32:17;;;;;;;3.85;0.20;;;;;;;;;;4980124;28;20049;-74
2024/01/31 01:34:43;;;;;;;1.88;0.20;;;;;;;;;;4979988;28;20090;-73
2024/01/31 01:37:09;;;;;;;3.83;0.28;;;;;;;;;;4962138;28;20133;-74
2024/01/31 01:39:37;;;;;;;1.98;0.17;;;;;;;;;;4960582;28;20517;-73
2024/01/31 01:42:03;;;;;;;2.53;0.20;;;;;;;;;;4943651;28;20095;-73
2024/01/31 01:44:30;;;;;;;4.25;0.30;;;;;;;;;;4977588;28;20054;-73
2024/01/31 01:46:56;;;;;;;3.47;0.40;;;;;;;;;;4977333;28;20046;-74
2024/01/31 01:49:22;;;;;;;4.72;0.40;;;;;;;;;;4944358;28;20057;-74
2024/01/31 01:51:49;;;;;;;2.60;0.32;;;;;;;;;;4977290;28;20049;-74
2024/01/31 01:54:16;;;;;;;5.35;0.40;;;;;;;;;;4959856;28;20054;-73
2024/01/31 01:56:44;;;;;;;3.30;0.40;;;;;;;;;;4960733;28;20055;-73
2024/01/31 01:59:11;;;;;;;2.08;0.30;;;;;;;;;;4977796;28;20043;-74
2024/01/31 02:01:37;;;;;;;3.60;0.40;;;;;;;;;;4960032;28;20105;-74
2024/01/31 02:04:04;;;;;;;5.13;0.40;;;;;;;;;;4977362;28;20407;-74
2024/01/31 02:06:30;;;;;;;4.60;0.40;;;;;;;;;;4959661;28;20053;-74
2024/01/31 02:08:57;;;;;;;5.53;0.40;;;;;;;;;;4944536;28;20058;-74
2024/01/31 02:11:24;;;;;;;4.72;0.52;;;;;;;;;;4977303;28;20050;-73
2024/01/31 02:13:50;;;;;;;9.32;0.68;;;;;;;;;;4976487;28;20483;-74
2024/01/31 02:16:16;;;;;;;8.63;0.45;;;;;;;;;;4960392;28;20089;-74
2024/01/31 02:18:42;;;;;;;2.55;0.40;;;;;;;;;;4959917;28;20047;-74
2024/01/31 02:21:08;;;;;;;4.97;0.50;;;;;;;;;;4976467;28;20133;-75
2024/01/31 02:23:34;;;;;;;2.75;0.47;;;;;;;;;;4976765;28;20050;-74
2024/01/31 02:26:00;;;;;;;3.03;0.40;;;;;;;;;;4959860;28;20050;-73
2024/01/31 02:28:26;;;;;;;3.40;0.50;;;;;;;;;;4977008;28;20057;-73
2024/01/31 02:30:53;;;;;;;4.38;0.40;;;;;;;;;;4959446;28;20461;-74
2024/01/31 02:33:19;;;;;;;4.30;0.30;;;;;;;;;;4960229;28;20047;-75
2024/01/31 02:35:45;;;;;;;4.60;0.20;;;;;;;;;;4960975;28;20455;-74
2024/01/31 02:38:11;;;;;;;5.53;0.32;;;;;;;;;;4960407;28;20137;-75
2024/01/31 02:40:37;;;;;;;2.80;0.20;;;;;;;;;;4959067;28;20134;-74
2024/01/31 02:43:03;;;;;;;1.75;0.15;;;;;;;;;;4959425;28;20046;-73
2024/01/31 02:45:29;;;;;;;6.38;0.25;;;;;;;;;;4959463;28;20043;-74
2024/01/31 02:47:55;;;;;;;4.68;0.43;;;;;;;;;;4976573;28;20050;-73
2024/01/31 02:50:22;;;;;;;3.10;0.20;;;;;;;;;;4976270;28;20133;-74
2024/01/31 02:52:49;;;;;;;2.97;0.20;;;;;;;;;;4959759;28;20475;-73
2024/01/31 02:55:15;;;;;;;2.30;0.20;;;;;;;;;;4958693;28;20058;-75
2024/01/31 02:57:41;;;;;;;1.65;0.10;;;;;;;;;;4958908;28;20053;-74
2024/01/31 03:00:11;;;;;;;3.97;0.10;;;;;;;;;;4976085;28;20105;-74
2024/01/31 03:02:37;;;;;;;5.32;0.10;;;;;;;;;;4975905;28;20054;-74
2024/01/31 03:05:04;;;;;;;6.57;0.28;;;;;;;;;;4959578;28;20047;-73
2024/01/31 03:07:30;;;;;;;3.95;0.30;;;;;;;;;;4927808;28;20055;-73
2024/01/31 03:09:56;;;;;;;4.28;0.20;;;;;;;;;;4958661;28;20055;-74
2024/01/31 03:12:22;;;;;;;3.38;0.50;;;;;;;;;;4958394;28;20089;-74
2024/01/31 03:14:48;;;;;;;4.88;0.20;;;;;;;;;;4943335;28;20057;-73
2024/01/31 03:17:14;;;;;;;6.35;0.20;;;;;;;;;;4958534;28;20051;-74
2024/01/31 03:19:41;;;;;;;3.13;0.20;;;;;;;;;;4958428;28;20051;-74
2024/01/31 03:22:09;;;;;;;1.63;0.10;;;;;;;;;;4958072;28;20070;-73
2024/01/31 03:24:35;;;;;;;1.95;0.17;;;;;;;;;;4975518;28;20070;-74
2024/01/31 03:27:02;;;;;;;3.43;0.17;;;;;;;;;;4975548;28;20439;-73
2024/01/31 03:29:29;;;;;;;7.72;0.20;;;;;;;;;;4975875;28;20051;-74
2024/01/31 03:31:55;;;;;;;3.55;0.20;;;;;;;;;;4975427;28;20506;-74
2024/01/31 03:34:21;;;;;;;2.88;0.20;;;;;;;;;;4975346;28;20054;-74
2024/01/31 03:36:47;;;;;;;2.42;0.20;;;;;;;;;;4975774;28;20201;-74
2024/01/31 03:39:13;;;;;;;3.00;0.15;;;;;;;;;;4975293;28;20057;-73
2024/01/31 03:41:45;;;;;;;3.42;0.20;;;;;;;;;;4958154;28;20046;-74
2024/01/31 03:44:13;;;;;;;6.35;0.30;;;;;;;;;;4943098;28;20357;-74
2024/01/31 03:46:39;;;;;;;3.38;0.47;;;;;;;;;;4958941;28;20054;-74
2024/01/31 03:49:05;;;;;;;1.85;0.10;;;;;;;;;;4976826;28;20082;-74
2024/01/31 03:51:31;;;;;;;5.15;0.30;;;;;;;;;;4975599;28;20090;-74
2024/01/31 03:53:57;;;;;;;5.50;0.40;;;;;;;;;;4958078;28;20046;-73
2024/01/31 03:56:24;;;;;;;4.25;0.30;;;;;;;;;;4957995;28;20051;-74
2024/01/31 03:58:50;;;;;;;2.47;0.30;;;;;;;;;;4975068;28;20061;-73
2024/01/31 04:01:16;;;;;;;6.90;0.40;;;;;;;;;;4958192;28;20125;-74
2024/01/31 04:03:43;;;;;;;5.13;0.50;;;;;;;;;;4974861;28;20373;-74
2024/01/31 04:06:09;;;;;;;4.93;0.20;;;;;;;;;;4941573;28;20368;-73
2024/01/31 04:08:36;;;;;;;3.88;0.25;;;;;;;;;;4974877;28;20046;-75
2024/01/31 04:11:02;;;;;;;6.70;0.40;;;;;;;;;;4957517;28;20089;-73
2024/01/31 04:13:28;;;;;;;2.63;0.20;;;;;;;;;;4957428;28;20046;-74
2024/01/31 04:15:54;;;;;;;4.10;0.40;;;;;;;;;;4958239;28;20137;-74
2024/01/31 04:18:21;;;;;;;2.53;0.28;;;;;;;;;;4958654;28;20087;-74
2024/01/31 04:20:47;;;;;;;3.30;0.27;;;;;;;;;;4974854;28;20050;-74
2024/01/31 04:23:14;;;;;;;3.03;0.30;;;;;;;;;;4975272;28;20352;-74
2024/01/31 04:25:40;;;;;;;3.05;0.30;;;;;;;;;;4958742;28;20494;-74
2024/01/31 04:28:06;;;;;;;2.08;0.30;;;;;;;;;;4941708;28;20043;-74
2024/01/31 04:30:32;;;;;;;2.70;0.30;;;;;;;;;;4957361;28;20435;-74
2024/01/31 04:33:02;;;;;;;5.07;0.40;;;;;;;;;;4941672;28;20126;-74
2024/01/31 04:35:29;;;;;;;7.60;0.32;;;;;;;;;;4975037;28;20046;-74
2024/01/31 04:37:55;;;;;;;7.30;0.40;;;;;;;;;;4974638;28;20047;-74
2024/01/31 04:40:21;;;;;;;3.77;0.30;;;;;;;;;;4957463;28;20043;-74
2024/01/31 04:42:48;;;;;;;8.70;0.40;;;;;;;;;;4958070;28;20354;-74
2024/01/31 04:45:14;;;;;;;5.75;0.40;;;;;;;;;;4974618;28;20050;-74
2024/01/31 04:47:43;;;;;;;7.13;0.67;;;;;;;;;;4974150;28;20057;-75
2024/01/31 04:50:11;;;;;;;3.63;0.40;;;;;;;;;;4957894;28;20287;-75
2024/01/31 04:52:37;;;;;;;4.47;0.40;;;;;;;;;;4974219;28;20054;-74
2024/01/31 04:55:04;;;;;;;3.33;0.50;;;;;;;;;;4941687;28;20113;-74
2024/01/31 04:57:31;;;;;;;4.72;0.60;;;;;;;;;;4926605;28;20086;-74
2024/01/31 04:59:57;;;;;;;5.80;0.40;;;;;;;;;;4958322;28;20050;-74
2024/01/31 05:02:23;;;;;;;3.83;0.50;;;;;;;;;;4958469;28;20487;-74
2024/01/31 05:04:49;;;;;;;3.78;0.30;;;;;;;;;;4974490;28;20047;-74
2024/01/31 05:07:15;;;;;;;11.18;0.80;;;;;;;;;;4957336;28;20406;-75
2024/01/31 05:09:41;;;;;;;11.73;0.95;;;;;;;;;;4925683;28;20058;-76
2024/01/31 05:12:07;;;;;;;5.82;0.60;;;;;;;;;;4974151;28;20103;-75
2024/01/31 05:14:34;;;;;;;4.13;0.60;;;;;;;;;;4974028;28;20065;-76
2024/01/31 05:17:00;;;;;;;4.82;0.60;;;;;;;;;;4958890;28;20077;-75
2024/01/31 05:19:27;;;;;;;3.40;0.50;;;;;;;;;;4977911;28;20054;-75
2024/01/31 05:21:53;;;;;;;11.88;2.15;;;;;;;;;;4977714;28;20069;-74
2024/01/31 05:24:19;;;;;;;7.97;0.52;;;;;;;;;;4978237;28;20051;-75
2024/01/31 05:26:48;;;;;;;6.55;0.50;;;;;;;;;;4978189;28;20053;-73
2024/01/31 05:29:15;;;;;;;7.10;0.70;;;;;;;;;;4962599;28;20051;-75
2024/01/31 05:31:41;;;;;;;5.00;1.00;;;;;;;;;;4965654;28;20547;-75
2024/01/31 05:34:07;;;;;;;8.20;1.63;;;;;;;;;;4965792;28;20396;-75
2024/01/31 05:36:33;;;;;;;2.58;0.70;;;;;;;;;;4981212;28;20086;-75
2024/01/31 05:38:59;;;;;;;6.05;0.85;;;;;;;;;;4980774;28;20496;-75
2024/01/31 05:41:25;;;;;;;10.23;0.90;;;;;;;;;;4963688;28;20076;-75
2024/01/31 05:43:52;;;;;;;4.10;0.85;;;;;;;;;;4978210;28;20553;-76
2024/01/31 05:46:19;;;;;;;7.22;1.30;;;;;;;;;;4960868;28;20058;-75
2024/01/31 05:48:46;;;;;;;4.97;1.10;;;;;;;;;;4944290;28;20054;-76
2024/01/31 05:51:13;;;;;;;7.13;1.90;;;;;;;;;;4944457;28;20051;-74
2024/01/31 05:53:39;;;;;;;7.00;0.98;;;;;;;;;;4928278;28;20047;-75
2024/01/31 05:56:05;;;;;;;6.97;0.90;;;;;;;;;;4977294;28;20111;-75
2024/01/31 05:58:31;;;;;;;6.90;1.05;;;;;;;;;;4977086;28;20052;-73
2024/01/31 06:00:58;;;;;;;8.05;0.90;;;;;;;;;;4959941;28;20107;-74
2024/01/31 06:03:25;;;;;;;6.28;0.95;;;;;;;;;;4959839;28;20050;-74
2024/01/31 06:05:54;;;;;;;5.03;1.00;;;;;;;;;;4976920;28;20059;-74
2024/01/31 06:08:23;;;;;;;6.30;1.10;;;;;;;;;;4959867;28;20091;-74
2024/01/31 06:10:53;;;;;;;3.85;0.77;;;;;;;;;;4976801;28;20050;-74
2024/01/31 06:13:19;;;;;;;7.38;1.00;;;;;;;;;;4976896;28;20053;-75
2024/01/31 06:15:45;;;;;;;7.68;1.10;;;;;;;;;;4959791;28;20047;-72
2024/01/31 06:18:14;;;;;;;13.38;3.03;;;;;;;;;;4976482;28;20047;-74
2024/01/31 06:20:40;;;;;;;5.22;1.20;;;;;;;;;;4959625;28;20051;-74
2024/01/31 06:23:09;;;;;;;3.13;1.20;;;;;;;;;;4959073;28;20059;-74
2024/01/31 06:25:36;;;;;;;4.28;1.13;;;;;;;;;;4959718;28;20050;-73
2024/01/31 06:28:02;;;;;;;9.63;1.30;;;;;;;;;;4943000;28;20110;-74
2024/01/31 06:30:33;;;;;;;6.50;1.30;;;;;;;;;;4927768;28;20051;-75
2024/01/31 06:33:06;;;;;;;7.28;1.58;;;;;;;;;;4959934;28;20310;-74
2024/01/31 06:35:35;;;;;;;5.75;1.33;;;;;;;;;;4959256;28;20054;-75
2024/01/31 06:38:02;;;;;;;4.40;1.40;;;;;;;;;;4959142;28;20051;-73
2024/01/31 06:40:28;;;;;;;7.20;1.30;;;;;;;;;;4943283;28;20165;-75
2024/01/31 06:42:54;;;;;;;7.70;1.40;;;;;;;;;;4928129;28;20141;-74
2024/01/31 06:45:20;;;;;;;5.18;1.20;;;;;;;;;;4958795;28;20089;-74
2024/01/31 06:47:46;;;;;;;6.78;1.40;;;;;;;;;;4959158;28;20058;-75
2024/01/31 06:50:13;;;;;;;14.40;2.72;;;;;;;;;;4958950;28;20541;-74
2024/01/31 06:52:39;;;;;;;10.67;1.47;;;;;;;;;;4975984;28;20078;-74
2024/01/31 06:55:05;;;;;;;3.78;1.13;;;;;;;;;;4943076;28;20054;-74
2024/01/31 06:57:33;;;;;;;10.02;1.92;;;;;;;;;;4942654;28;20113;-74
2024/01/31 06:59:59;;;;;;;6.32;1.40;;;;;;;;;;4958842;28;20129;-74
2024/01/31 07:02:26;;;;;;;8.07;1.40;;;;;;;;;;4975701;28;20186;-74
2024/01/31 07:04:52;;;;;;;7.18;1.60;;;;;;;;;;4958321;28;20055;-75
2024/01/31 07:07:18;;;;;;;7.28;1.63;;;;;;;;;;4943226;28;20131;-74
2024/01/31 07:09:44;;;;;;;6.53;1.47;;;;;;;;;;4959272;28;20484;-74
2024/01/31 07:12:10;;;;;;;6.28;1.63;;;;;;;;;;4942745;28;20574;-74
2024/01/31 07:14:37;;;;;;;6.30;1.52;;;;;;;;;;4975552;28;20050;-75
2024/01/31 07:17:03;;;;;;;9.10;2.03;;;;;;;;;;4975062;28;20503;-74
2024/01/31 07:19:29;;;;;;;9.05;1.90;;;;;;;;;;4976085;28;20294;-75
2024/01/31 07:21:56;;;;;;;11.50;2.22;;;;;;;;;;4959164;28;20046;-74
2024/01/31 07:24:22;;;;;;;6.30;2.83;;;;;;;;;;4959102;28;20072;-74
2024/01/31 07:26:48;;;;;;;7.82;2.67;;;;;;;;;;4959189;28;20047;-74
2024/01/31 07:29:14;;;;;;;10.73;2.60;;;;;;;;;;4942633;28;20149;-74
2024/01/31 07:31:40;;;;;;;9.07;2.67;;;;;;;;;;4958120;28;20057;-74
2024/01/31 07:34:06;;;;;;;10.77;3.22;;;;;;;;;;4958661;28;20047;-75
2024/01/31 07:36:32;;;;;;;14.80;4.43;;;;;;;;;;4975095;28;20050;-75
2024/01/31 07:38:59;;;;;;;8.32;3.10;;;;;;;;;;4942224;28;20043;-74
2024/01/31 07:41:25;;;;;;;8.10;2.92;;;;;;;;;;4974314;28;20058;-74
2024/01/31 07:43:51;;;;;;;9.35;3.40;;;;;;;;;;4958524;28;20474;-74
2024/01/31 07:46:17;;;;;;;7.18;2.83;;;;;;;;;;4975214;28;20057;-74
2024/01/31 07:48:43;;;;;;;9.13;3.35;;;;;;;;;;4958373;28;20495;-74
2024/01/31 07:51:09;;;;;;;8.88;2.92;;;;;;;;;;4942229;28;20153;-74
2024/01/31 07:53:38;;;;;;;10.93;3.03;;;;;;;;;;4942612;28;20054;-74
2024/01/31 07:56:05;;;;;;;11.10;3.30;;;;;;;;;;4957708;28;20062;-74
2024/01/31 07:58:31;;;;;;;10.53;3.23;;;;;;;;;;4957669;28;20062;-74
2024/01/31 08:00:57;;;;;;;10.33;3.63;;;;;;;;;;4975335;28;20442;-74
2024/01/31 08:03:23;;;;;;;11.60;3.15;;;;;;;;;;4974858;28;20082;-74
2024/01/31 08:05:50;;;;;;;10.70;3.35;;;;;;;;;;4941819;28;20047;-74
2024/01/31 08:08:16;;;;;;;9.10;2.70;;;;;;;;;;4941822;28;20372;-74
2024/01/31 08:10:43;;;;;;;11.85;3.10;;;;;;;;;;4974826;28;20043;-74
2024/01/31 08:13:09;;;;;;;6.55;2.45;;;;;;;;;;4958311;28;20165;-75
2024/01/31 08:15:35;;;;;;;8.65;2.67;;;;;;;;;;4957712;28;20050;-74
2024/01/31 08:18:02;;;;;;;11.10;2.67;;;;;;;;;;4957603;28;20133;-74
2024/01/31 08:20:28;;;;;;;9.23;3.13;;;;;;;;;;4974864;28;20054;-74
2024/01/31 08:22:54;;;;;;;8.90;3.00;;;;;;;;;;4957047;28;20746;-74
2024/01/31 08:25:20;;;;;;;12.70;2.83;;;;;;;;;;4957222;28;20133;-74
2024/01/31 08:27:50;;;;;;;8.23;2.30;;;;;;;;;;4957322;28;20057;-74
2024/01/31 08:30:21;;;;;;;4.43;1.60;;;;;;;;;;4941647;28;20047;-75
2024/01/31 08:32:47;;;;;;;5.78;1.77;;;;;;;;;;4958709;28;20051;-74
2024/01/31 08:35:13;;;;;;;7.00;1.80;;;;;;;;;;4943679;28;20047;-76
2024/01/31 08:37:39;;;;;;;5.93;1.90;;;;;;;;;;4942474;28;20062;-74
2024/01/31 08:40:07;;;;;;;5.40;1.80;;;;;;;;;;4941548;28;20113;-75
2024/01/31 08:42:33;;;;;;;5.85;2.17;;;;;;;;;;4974460;28;20050;-74
2024/01/31 08:44:59;;;;;;;6.45;2.58;;;;;;;;;;4957276;28;20484;-75
2024/01/31 08:47:25;;;;;;;12.13;2.70;;;;;;;;;;4957325;28;20051;-74
2024/01/31 08:49:51;;;;;;;8.52;2.30;;;;;;;;;;4941610;28;20051;-74
2024/01/31 08:52:17;;;;;;;6.30;2.00;;;;;;;;;;4976621;28;20046;-73
2024/01/31 08:54:43;;;;;;;8.15;2.40;;;;;;;;;;4945761;28;20157;-75
2024/01/31 08:57:11;;;;;;;9.43;2.65;;;;;;;;;;4961445;28;20054;-75
2024/01/31 08:59:37;;;;;;;6.55;2.70;;;;;;;;;;4961137;28;20488;-74
2024/01/31 09:02:03;;;;;;;8.40;2.88;;;;;;;;;;4960865;28;20043;-75
2024/01/31 09:04:29;;;;;;;8.02;3.17;;;;;;;;;;4961025;28;20054;-75
2024/01/31 09:06:55;;;;;;;9.23;2.70;;;;;;;;;;4960907;28;20046;-74
2024/01/31 09:09:21;;;;;;;8.32;2.63;;;;;;;;;;4960818;28;20047;-75
2024/01/31 09:11:47;;;;;;;6.20;2.67;;;;;;;;;;4944738;28;20133;-74
2024/01/31 09:14:14;;;;;;;8.48;2.60;;;;;;;;;;4961515;28;20053;-73
2024/01/31 09:16:40;;;;;;;9.80;2.78;;;;;;;;;;4944844;28;20089;-74
2024/01/31 09:19:06;;;;;;;7.38;2.58;;;;;;;;;;4961172;28;20051;-75
2024/01/31 09:21:32;;;;;;;8.35;2.60;;;;;;;;;;4945546;28;20086;-73
2024/01/31 09:23:59;;;;;;;6.38;2.63;;;;;;;;;;4961963;28;20101;-75
2024/01/31 09:26:25;;;;;;;10.60;2.60;;;;;;;;;;4961711;28;20065;-74
2024/01/31 09:28:51;;;;;;;10.32;2.85;;;;;;;;;;4963923;28;20054;-74
2024/01/31 09:31:24;;;;;;;7.80;2.22;;;;;;;;;;4981527;28;20046;-74
2024/01/31 09:33:50;;;;;;;6.95;2.70;;;;;;;;;;4949882;28;20047;-75
2024/01/31 09:36:17;;;;;;;8.75;2.55;;;;;;;;;;4951036;28;20051;-76
2024/01/31 09:38:44;;;;;;;7.18;2.05;;;;;;;;;;4959404;28;20052;-74
2024/01/31 09:41:10;;;;;;;9.75;2.58;;;;;;;;;;4978485;28;20069;-75
2024/01/31 09:43:37;;;;;;;8.32;2.20;;;;;;;;;;4964153;28;20432;-74
2024/01/31 09:46:04;;;;;;;7.25;2.53;;;;;;;;;;4960756;28;20043;-75
2024/01/31 09:48:30;;;;;;;;;;;;;;;;;;4960668;28;20050;-74
2024/01/31 09:50:56;;;;;;;6.15;2.75;;;;;;;;;;4945107;28;19922;-74
2024/01/31 09:53:23;;;;;;;8.90;2.90;;;;;;;;;;4959908;28;20395;-76
2024/01/31 09:55:51;;;;;;;7.68;2.83;;;;;;;;;;4960562;28;20468;-75
2024/01/31 09:58:18;;;;;;;8.63;2.63;;;;;;;;;;4960602;28;20050;-75
2024/01/31 10:00:45;;;;;;;8.10;2.70;;;;;;;;;;4959874;28;20102;-75
2024/01/31 10:03:11;;;;;;;10.32;3.03;;;;;;;;;;4959737;28;20190;-75
2024/01/31 10:05:37;;;;;;;11.20;3.50;;;;;;;;;;4943926;28;20051;-75
2024/01/31 10:08:03;;;;;;;10.00;2.65;;;;;;;;;;4943687;28;20078;-74
2024/01/31 10:10:29;;;;;;;7.23;2.80;;;;;;;;;;4976940;28;20047;-74
2024/01/31 10:12:56;;;;;;;6.88;2.60;;;;;;;;;;4959919;28;20654;-75
2024/01/31 10:15:22;;;;;;;7.30;2.78;;;;;;;;;;4959686;28;20134;-75
2024/01/31 10:17:48;;;;;;;8.63;2.72;;;;;;;;;;4959726;28;20043;-75
2024/01/31 10:20:14;;;;;;;8.13;3.03;;;;;;;;;;4959760;28;20073;-76
2024/01/31 10:22:42;;;;;;;9.23;3.20;;;;;;;;;;4959407;28;20058;-75
2024/01/31 10:25:09;;;;;;;7.40;2.90;;;;;;;;;;4976568;28;20094;-75
2024/01/31 10:27:38;;;;;;;9.65;3.33;;;;;;;;;;4944596;28;20047;-76
2024/01/31 10:30:06;;;;;;;10.20;3.38;;;;;;;;;;4959519;28;20053;-76
2024/01/31 10:32:33;;;;;;;8.65;3.85;;;;;;;;;;4960056;28;20050;-74
2024/01/31 10:35:00;;;;;;;15.73;3.80;;;;;;;;;;4976456;28;20043;-75
2024/01/31 10:37:27;;;;;;;7.95;3.85;;;;;;;;;;4960131;28;20059;-75
2024/01/31 10:39:54;;;;;;;10.88;3.78;;;;;;;;;;4927781;28;20053;-76
2024/01/31 10:42:21;;;;;;;9.80;3.90;;;;;;;;;;4959170;28;20097;-75
2024/01/31 10:44:48;;;;;;;9.00;4.15;;;;;;;;;;4959364;28;20051;-74
2024/01/31 10:47:14;;;;;;;9.90;4.50;;;;;;;;;;4959167;28;20186;-76
2024/01/31 10:49:40;;;;;;;9.60;4.97;;;;;;;;;;4958857;28;20086;-74
2024/01/31 10:52:09;;;;;;;13.18;4.72;;;;;;;;;;4978455;28;20470;-75
2024/01/31 10:54:38;;;;;;;15.40;5.47;;;;;;;;;;4960218;28;20046;-76
2024/01/31 10:57:05;;;;;;;12.48;5.38;;;;;;;;;;4958967;28;20042;-74
2024/01/31 10:59:36;;;;;;;8.73;5.10;;;;;;;;;;4958832;28;20051;-77
2024/01/31 11:02:02;;;;;;;12.73;5.00;;;;;;;;;;4959796;28;20452;-74
2024/01/31 11:04:28;;;;;;;13.82;5.88;;;;;;;;;;4958922;28;20130;-75
2024/01/31 11:06:59;;;;;;;12.68;5.80;;;;;;;;;;4958819;28;20094;-74
2024/01/31 11:09:25;;;;;;;10.13;5.13;;;;;;;;;;4958783;28;20126;-76
2024/01/31 11:12:04;;;;;;;10.07;5.40;;;;;;;;;;4958381;28;20078;-75
2024/01/31 11:14:31;;;;;;;12.05;5.47;;;;;;;;;;4958573;28;20129;-75
2024/01/31 11:17:07;;;;;;;9.40;5.05;;;;;;;;;;4942769;28;20058;-75
2024/01/31 11:19:36;;;;;;;11.87;4.83;;;;;;;;;;4943015;28;20379;-75
2024/01/31 11:22:02;;;;;;;13.35;5.60;;;;;;;;;;4975318;28;20340;-74
2024/01/31 11:24:30;;;;;;;14.68;4.95;;;;;;;;;;4942850;28;20391;-75
2024/01/31 11:26:56;;;;;;;9.80;4.95;;;;;;;;;;4958567;28;20105;-75
2024/01/31 11:29:23;;;;;;;11.05;4.90;;;;;;;;;;4958445;28;20488;-75
2024/01/31 11:31:49;;;;;;;8.93;4.55;;;;;;;;;;4957780;28;20514;-74
2024/01/31 11:34:15;;;;;;;9.20;4.78;;;;;;;;;;4942381;28;20046;-75
2024/01/31 11:36:41;;;;;;;9.10;4.63;;;;;;;;;;4958279;28;20042;-76
2024/01/31 11:39:08;;;;;;;9.57;4.50;;;;;;;;;;4942070;28;20205;-75
2024/01/31 11:41:34;;;;;;;8.10;4.30;;;;;;;;;;4975261;28;20130;-75
2024/01/31 11:44:00;;;;;;;10.10;4.35;;;;;;;;;;4957977;28;20082;-75
2024/01/31 11:46:26;;;;;;;11.60;4.93;;;;;;;;;;4957742;28;20515;-76
2024/01/31 11:48:53;;;;;;;8.32;4.20;;;;;;;;;;4957628;28;20063;-75
2024/01/31 11:51:19;;;;;;;8.50;4.75;;;;;;;;;;4957951;28;20047;-75
2024/01/31 11:53:45;;;;;;;10.30;4.65;;;;;;;;;;4958144;28;20049;-75
2024/01/31 11:56:12;;;;;;;8.68;4.57;;;;;;;;;;4926332;28;20054;-74
2024/01/31 11:58:39;;;;;;;10.18;4.65;;;;;;;;;;4958162;28;20556;-75
2024/01/31 12:01:05;;;;;;;8.70;4.07;;;;;;;;;;4976383;28;20127;-74
2024/01/31 12:03:31;;;;;;;12.43;5.13;;;;;;;;;;4927458;28;20050;-75
2024/01/31 12:05:58;;;;;;;11.90;5.53;;;;;;;;;;4957906;28;20282;-75
2024/01/31 12:08:28;;;;;;;9.95;5.63;;;;;;;;;;4957798;28;20137;-75
2024/01/31 12:10:54;;;;;;;12.70;5.47;;;;;;;;;;4975177;28;20435;-76
2024/01/31 12:13:21;;;;;;;9.57;5.35;;;;;;;;;;4957711;28;20043;-75
2024/01/31 12:15:48;;;;;;;12.13;6.50;;;;;;;;;;4958162;28;20046;-75
2024/01/31 12:18:15;;;;;;;11.38;6.05;;;;;;;;;;4957761;28;20058;-75
2024/01/31 12:20:41;;;;;;;12.50;6.32;;;;;;;;;;4957782;28;20595;-75
2024/01/31 12:23:07;;;;;;;11.68;6.07;;;;;;;;;;4957558;28;20101;-75
2024/01/31 12:25:33;;;;;;;11.13;5.77;;;;;;;;;;4958619;28;20481;-76
2024/01/31 12:28:03;;;;;;;12.40;5.72;;;;;;;;;;4957641;28;20058;-75
2024/01/31 12:30:29;;;;;;;12.35;6.43;;;;;;;;;;4957711;28;20047;-75
2024/01/31 12:32:55;;;;;;;13.60;6.05;;;;;;;;;;4974673;28;20057;-76
2024/01/31 12:35:22;;;;;;;12.00;6.50;;;;;;;;;;4957343;28;20054;-75
2024/01/31 12:37:48;;;;;;;;;;;;;;;;;;4958029;28;20066;-75
2024/01/31 12:40:14;;;;;;;12.60;6.30;;;;;;;;;;4942510;28;19925;-75
2024/01/31 12:42:40;;;;;;;11.90;5.97;;;;;;;;;;4957598;28;20058;-75
2024/01/31 12:45:07;;;;;;;13.80;6.43;;;;;;;;;;4957901;28;20046;-75
2024/01/31 12:47:34;;;;;;;9.70;5.45;;;;;;;;;;4957922;28;20053;-75
2024/01/31 12:50:00;;;;;;;13.35;6.93;;;;;;;;;;4957548;28;20055;-75
2024/01/31 12:52:26;;;;;;;10.43;5.55;;;;;;;;;;4957611;28;20138;-76
2024/01/31 12:54:52;;;;;;;10.07;5.50;;;;;;;;;;4957829;28;20444;-75
2024/01/31 12:57:18;;;;;;;12.18;6.60;;;;;;;;;;4957541;28;20121;-74
2024/01/31 12:59:46;;;;;;;13.73;6.35;;;;;;;;;;4974615;28;20137;-75
2024/01/31 13:02:12;;;;;;;11.82;6.30;;;;;;;;;;4957122;28;20087;-75
2024/01/31 13:04:38;;;;;;;14.32;5.90;;;;;;;;;;4957260;28;20054;-75
2024/01/31 13:07:04;;;;;;;10.82;6.13;;;;;;;;;;4974483;28;20134;-75
2024/01/31 13:09:30;;;;;;;13.18;5.95;;;;;;;;;;4958403;28;20058;-75
2024/01/31 13:11:57;;;;;;;12.73;6.35;;;;;;;;;;4959010;28;20086;-75
2024/01/31 13:14:23;;;;;;;10.80;5.63;;;;;;;;;;4926070;28;20050;-76
2024/01/31 13:16:49;;;;;;;13.20;6.18;;;;;;;;;;4941103;28;20082;-74
2024/01/31 13:19:20;;;;;;;15.02;7.13;;;;;;;;;;4941774;28;20078;-75
2024/01/31 13:21:49;;;;;;;14.38;6.03;;;;;;;;;;4957441;28;20046;-76
2024/01/31 13:24:16;;;;;;;14.63;7.10;;;;;;;;;;4957884;28;20086;-75
2024/01/31 13:26:42;;;;;;;15.48;6.95;;;;;;;;;;4957397;28;20466;-75
2024/01/31 13:29:08;;;;;;;13.55;6.35;;;;;;;;;;4941808;28;20046;-76
2024/01/31 13:31:34;;;;;;;15.57;6.70;;;;;;;;;;4974445;28;20086;-76
2024/01/31 13:34:00;;;;;;;14.38;6.97;;;;;;;;;;4957030;28;20043;-76
2024/01/31 13:36:29;;;;;;;14.00;7.38;;;;;;;;;;4956965;28;20392;-75
2024/01/31 13:38:55;;;;;;;13.25;6.53;;;;;;;;;;4959286;28;20376;-75
2024/01/31 13:41:22;;;;;;;16.25;7.00;;;;;;;;;;4977654;28;20133;-74
2024/01/31 13:43:52;;;;;;;14.32;7.28;;;;;;;;;;4960510;28;20065;-76
2024/01/31 13:46:18;;;;;;;17.50;8.30;;;;;;;;;;4961769;28;20082;-74
2024/01/31 13:48:44;;;;;;;15.05;6.93;;;;;;;;;;4961748;28;20456;-74
2024/01/31 13:51:13;;;;;;;14.75;7.78;;;;;;;;;;4960908;28;20054;-77
2024/01/31 13:53:42;;;;;;;16.10;8.63;;;;;;;;;;4960584;28;20047;-74
2024/01/31 13:56:09;;;;;;;19.83;8.10;;;;;;;;;;4960449;28;20482;-76
2024/01/31 13:58:35;;;;;;;15.65;7.65;;;;;;;;;;4945120;28;20078;-74
2024/01/31 14:01:01;;;;;;;16.73;8.43;;;;;;;;;;4961042;28;20134;-74
2024/01/31 14:03:27;;;;;;;17.33;10.13;;;;;;;;;;4932067;28;20047;-72
2024/01/31 14:05:53;;;;;;;18.60;9.05;;;;;;;;;;4951953;28;20047;-73
2024/01/31 14:08:20;;;;;;;20.70;8.95;;;;;;;;;;4953578;28;20051;-73
2024/01/31 14:10:46;;;;;;;19.90;9.17;;;;;;;;;;4951890;28;20114;-74
2024/01/31 14:13:13;;;;;;;21.40;9.40;;;;;;;;;;4966066;28;20085;-75
2024/01/31 14:15:39;;;;;;;19.60;9.88;;;;;;;;;;4983574;28;20074;-75
2024/01/31 14:18:05;;;;;;;18.98;9.80;;;;;;;;;;4931861;28;20053;-75
2024/01/31 14:20:32;;;;;;;18.15;9.82;;;;;;;;;;4962237;28;20054;-77
2024/01/31 14:22:59;;;;;;;22.58;10.27;;;;;;;;;;4960909;28;20138;-75
2024/01/31 14:25:25;;;;;;;23.08;10.90;;;;;;;;;;4960811;28;20375;-76
2024/01/31 14:27:51;;;;;;;18.50;9.80;;;;;;;;;;4944160;28;20073;-76
2024/01/31 14:30:17;;;;;;;22.45;10.95;;;;;;;;;;4976912;28;20093;-75
2024/01/31 14:32:43;;;;;;;23.08;11.00;;;;;;;;;;4959693;28;20057;-77
2024/01/31 14:35:09;;;;;;;23.90;11.15;;;;;;;;;;4943517;28;20381;-76